AirNav   Air Wisconsin pilot careers
 
 1412 users online  

15VA Fox Acres Airport
Warrenton, Virginia, USA

GOING TO WARRENTON?


FAA INFORMATION EFFECTIVE 29 MARCH 2018

Location

FAA Identifier: 15VA
Lat/Long: 38-43-20.4230N / 077-53-58.9810W
38-43.340383N / 077-53.983017W
38.7223397 / -77.8997169
(estimated)
Elevation: 450 ft. / 137 m (estimated)
Variation: 09W (1985)
From city: 5 miles E of WARRENTON, VA
Time zone: UTC -4 (UTC -5 during Standard Time)
Zip code: 20186

Airport Operations

Airport use: Private use. Permission required prior to landing
Activation date: 12/1983
Control tower: no
ARTCC: WASHINGTON CENTER
FSS: LEESBURG FLIGHT SERVICE STATION
Attendance: UNATNDD
Wind indicator: yes
Segmented circle: no

Airport Communications

WX AWOS-3 at CJR (12 nm S): 119.325 (540-727-0523)
WX AWOS-3 at HWY (12 nm SE): 120.350 (540-788-4078)
WX AWOS-3PT at HEF (18 nm E): PHONE 703-361-6160

Nearby radio navigation aids

VOR radial/distance  VOR name  Freq  Var
CSNr348/5.1CASANOVA VORTAC116.3006W
LDNr125/16.4LINDEN VORTAC114.3006W
AMLr246/23.9ARMEL VOR/DME113.5008W
BRVr321/34.6BROOKE VORTAC114.5009W
MRBr190/39.9MARTINSBURG VORTAC112.1007W

 
NDB name  Hdg/Dist  Freq  Var  ID
GOODWIN LAKE201/14.322708WGDX --. -.. -..-
NAILR011/16.135110WMSQ -- ... --.-
CAVERNS096/26.824509WLUA .-.. ..- .-
SHANNON332/34.523710WEZF . --.. ..-.
DAVEE285/37.222309WDAA -.. .- .-
GEORGETOWN260/38.332309WGTN --. - -.

Airport Services

Runway Information

Runway 2/20

Dimensions: 1950 x 125 ft. / 594 x 38 m
Surface: turf
Runway edge markings: 02/20 RWY ENDS MARKED WITH CONES.
RUNWAY 2  RUNWAY 20
Traffic pattern: leftleft
Obstructions: 50 ft. pline, marked, 50 ft. from runwaynone

Airport Ownership and Management from official FAA records

Ownership: Privately-owned
Owner: CONRAD MILLER
9317 PINEY MT RD
WARRENTON, VA 20186
Phone 703-347-7015
Manager: CONRAD MILLER
9317 PINEY MT RD
WARRENTON, VA 20186
Phone 703-347-7015

Airport Operational Statistics

Aircraft based on the field: 1
Single engine airplanes: 1
    

Instrument Procedures

There are no published instrument procedures at 15VA.

Some nearby airports with instrument procedures:

KCJR - Culpeper Regional Airport (12 nm S)
KHWY - Warrenton-Fauquier Airport (12 nm SE)
2VG2 - Upperville Airport (15 nm N)
KHEF - Manassas Regional Airport/Harry P. Davis Field (18 nm E)
KFRR - Front Royal-Warren County Airport (20 nm NW)
 
Loc | Ops | Rwys | IFR | FBO | Links
Com | Nav | Svcs | Stats | Notes

AirNav Hotels Sweepstakes
 
Area around 15VA (Fox Acres Airport)
 
Road maps at: MapQuest Bing Google
 
Aerial photo
No photo
 
Sectional chart

 
Airport distance calculator
Flying to Fox Acres Airport? Find the distance to fly.

From to 15VA

Sunrise and sunset
Times for 23-Apr-2018
 Local
(UTC-4)
 Zulu
(UTC)
Morning civil twilight05:5709:57
Sunrise06:2510:25
Sunset19:5523:55
Evening civil twilight20:2300:23

Current date and time
Zulu (UTC)  23-Apr-2018 21:31:25
Local (UTC-4)  23-Apr-2018 17:31:25
 
METAR
KHWY 
12nm SE 
232115Z AUTO 11013G18KT 10SM SCT050 OVC075 19/04 A3033 RMK AO2 T01900038
KCJR 
16nm SW 
232115Z AUTO 10005KT 10SM SCT055 BKN070 19/06 A3033 RMK AO2 T01940061
KHEF 
18nm E 
232056Z AUTO 14014KT 10SM OVC070 19/07 A3034 RMK AO2 SLP284 6//// T01890072 56015 PNO $
KFRR 
20nm NW 
232115Z AUTO 12006G14KT 10SM SCT050 OVC070 18/07 A3030 RMK AO1
TAF
KIAD 
25nm NE 
231722Z 2318/2424 16010G19KT P6SM FEW070 BKN250 FM240000 14006KT P6SM BKN250 FM240900 11005KT 6SM -RA BR OVC040 FM241400 11008KT 4SM RA BR OVC020 FM241800 09009KT 3SM RA BR OVC008
NOTAMs
Click for the latest NOTAMs
NOTAMs are issued by the DoD/FAA and will open in a separate window not controlled by AirNav.

 

 
 

Would you like to see your business listed on this page?

 If your business provides an interesting product or service to pilots, flight crews, aircraft, or users of the Fox Acres Airport, you should consider listing it here.  To start the listing process, click on the button below
 
Add a business
 

Other Pages about Fox Acres Airport

Update a link
 
Copyright © AirNav, LLC. All rights reserved. Privacy Policy  Contact